Historyczne dane pomiarowe

Dodano dane terminowe – wersja testowa.

Dane z okresu 1951-2019

Wersja bazy: 1.34 [2019-03-16, lista zmian], aktualizacja planowana na 2019-04-15

Dane meteo z obszaru Polski uzyskane na podstawie danych udostępnionych przez Instytut Meteorologii i Gospodarki Wodnej – Państwowy Instytut Badawczy.

 

Wybierz Datę:    

       

TemperaturaWilgotnośćZachmurzenieWiatrCiśnienieWidzialnośćZjawiska
 Data    tng td wb rh cc ccl cl cm ch dir g1 g2 mslp ppp      
1999-07-14 00:00:00 18.8--- 18.0 18.395wxwxwx3wx--1000.2 996.3 0.3---wxw1
1999-07-14 01:00:00 18.5--- 17.7 18.095wxwxwx3wx--1000.0 996.1----wx
1999-07-14 02:00:00 18.4--- 17.9 18.197wxwxwx2wx-- 999.5 995.6----wx
1999-07-14 03:00:00 18.2--- 17.7 17.997wxwxwxwxwx2wx-- 999.1 995.2----wx
1999-07-14 04:00:00 18.5--- 17.8 18.196wxwxwxwx2wx-- 998.5 994.6----wx
1999-07-14 05:00:00 19.2--- 19.0 19.199wxwxwxwx2wx-- 998.6 994.7----wxw1
1999-07-14 06:00:00 18.7--- 18.2 18.497wxwxwxwx1wx-- 998.1 994.2 4.2---wxw1
1999-07-14 07:00:00 19.3--- 18.7 18.996wxwxwxwx3wx-- 998.0 994.1----wx
1999-07-14 08:00:00 21.6--- 19.9 20.590wxwxwxwx3wx-- 997.8 993.9----wx
1999-07-14 09:00:00 22.8--- 20.6 21.488wxwxwxwx2wx-- 997.8 993.9----wxw1
1999-07-14 10:00:00 24.0--- 20.6 21.882wxwxwxwx3wx-- 997.6 993.7----wx
1999-07-14 11:00:00 19.1--- 18.6 18.897wxwxwx6wx11- 998.3 994.4----wxw1
1999-07-14 12:00:00 17.6--- 17.3 17.498wxwxwx5wx10- 999.6 995.7 8.5---wxw1
1999-07-14 13:00:00 18.3--- 17.0 17.592wxwxwxwx4wx--1000.1 996.2----wxw1
1999-07-14 14:00:00 19.0--- 17.2 17.989wxwxwxwx5wx--1000.5 996.6----wx
1999-07-14 15:00:00 19.5--- 16.9 17.985wxwxwxwx5wx--1000.5 996.6----wxw1
1999-07-14 16:00:00 19.9--- 16.8 18.082wxwxwxwx5wx--1000.9 997.0----wx
1999-07-14 17:00:00 19.3--- 15.8 17.280wxwxwx4wx--1001.2 997.3----wx
1999-07-14 18:00:00 18.5--- 15.2 16.581wxwxwxwx3wx--1001.8 997.9 0.5---wxw1
1999-07-14 19:00:00 17.7--- 15.0 16.184wxwxwx3wx--1002.3 998.3----wx
1999-07-14 20:00:00 17.4--- 15.2 16.187wxwxwx1wx--1002.8 998.8----wx
1999-07-14 21:00:00 17.3--- 15.2 16.188wxwxwx2wx--1003.1 999.1----wx
1999-07-14 22:00:00 17.1--- 14.7 15.786wxwxwx3wx--1003.6 999.6----wx
1999-07-14 23:00:00 16.6--- 14.5 15.488wxwxwxwx3wx--1004.01000.0----wx

 

Źródłem pochodzenia danych jest Instytut Meteorologii i Gospodarki Wodnej – Państwowy Instytut Badawczy. Dane Instytutu Meteorologii i Gospodarki Wodnej – Państwowego Instytutu Badawczego zostały przetworzone.

Dane źródłowe można odnaleźć na stronie https://dane.imgw.pl